Time;durP1;ratioP1;P1;durP2;ratioP2;P2;SDS_P1;SDS_P2;PMS_P1;PMS_P2;Temp;Humidity;BMP_temperature;BMP_pressure;BME280_temperature;BME280_humidity;BME280_pressure;Samples;Min_cycle;Max_cycle;Signal;HPM_P1;HPM_P2
2023/07/05 00:02:26;;;;;;;13.52;6.10;;;;;;;-142.57;78.08;115900.28;6249424;22;20458;-80
2023/07/05 00:04:52;;;;;;;17.63;6.07;;;;;;;-142.57;78.61;115900.28;6248492;22;20004;-83
2023/07/05 00:07:18;;;;;;;17.08;6.35;;;;;;;-142.57;77.89;115900.28;6248869;22;20039;-80
2023/07/05 00:09:43;;;;;;;15.90;6.05;;;;;;;-142.57;78.69;115900.28;6248481;23;20335;-81
2023/07/05 00:12:10;;;;;;;12.20;5.95;;;;;;;-142.57;78.90;115900.28;6248912;23;20004;-84
2023/07/05 00:14:35;;;;;;;11.30;5.47;;;;;;;-142.57;78.61;115900.28;6248044;23;20091;-81
2023/07/05 00:17:02;;;;;;;12.48;6.00;;;;;;;-142.57;79.00;115900.28;6248980;23;20016;-82
2023/07/05 00:19:28;;;;;;;10.48;5.50;;;;;;;-142.57;79.99;115900.28;6248235;23;20020;-80
2023/07/05 00:21:53;;;;;;;12.43;5.93;;;;;;;-142.57;79.72;115900.28;6247915;23;20038;-81
2023/07/05 00:24:19;;;;;;;10.27;5.85;;;;;;;-142.57;81.15;115900.28;6249210;23;20518;-82
2023/07/05 00:26:44;;;;;;;13.93;6.47;;;;;;;-142.57;80.98;115900.28;6248588;23;20014;-79
2023/07/05 00:29:10;;;;;;;11.07;6.00;;;;;;;-142.57;80.43;115900.28;6247497;23;20044;-84
2023/07/05 00:31:36;;;;;;;11.55;5.80;;;;;;;-142.57;80.99;115900.28;6247891;23;20039;-81
2023/07/05 00:34:01;;;;;;;11.57;6.28;;;;;;;-142.57;81.81;115900.28;6248482;22;20032;-82
2023/07/05 00:36:27;;;;;;;10.82;6.10;;;;;;;-142.57;81.71;115900.28;6246475;23;20127;-78
2023/07/05 00:38:53;;;;;;;21.13;6.60;;;;;;;-142.57;81.96;115900.28;6258374;23;20147;-79
2023/07/05 00:41:20;;;;;;;15.18;6.85;;;;;;;-142.57;82.54;115900.28;6253056;23;20099;-80
2023/07/05 00:43:48;;;;;;;13.48;6.63;;;;;;;-142.57;81.20;115900.28;6248840;22;20012;-81
2023/07/05 00:46:22;;;;;;;21.88;6.97;;;;;;;-142.57;83.67;115900.28;6249556;22;20004;-79
2023/07/05 00:48:54;;;;;;;16.48;6.85;;;;;;;-142.57;83.48;115900.28;6251478;22;20011;-84
2023/07/05 00:51:28;;;;;;;14.18;5.95;;;;;;;-142.57;83.03;115900.28;6252611;22;20008;-83
2023/07/05 00:53:58;;;;;;;16.17;5.82;;;;;;;-142.57;84.24;115900.28;6250543;23;20008;-85
2023/07/05 00:56:28;;;;;;;16.92;6.53;;;;;;;-142.57;84.90;115900.28;6254614;23;20454;-82
2023/07/05 00:59:00;;;;;;;11.85;6.25;;;;;;;-142.57;87.55;115900.28;6253642;22;20016;-86
2023/07/05 01:01:27;;;;;;;14.80;6.20;;;;;;;-142.57;88.71;115900.28;6252724;23;20016;-80
2023/07/05 01:03:58;;;;;;;14.85;6.57;;;;;;;-142.57;88.10;115900.28;6253466;22;20000;-83
2023/07/05 01:06:24;;;;;;;14.82;6.45;;;;;;;-142.57;88.12;115900.28;6253533;22;20442;-84
2023/07/05 01:08:51;;;;;;;11.45;6.57;;;;;;;-142.57;89.94;115900.28;6252758;22;20043;-87
2023/07/05 01:12:00;;;;;;;15.27;7.68;;;;;;;-142.57;91.82;115900.28;6251576;22;20023;-84
2023/07/05 01:14:35;;;;;;;18.83;8.20;;;;;;;-142.57;92.25;115900.28;6204668;22;20020;-87
2023/07/05 01:17:15;;;;;;;16.33;7.50;;;;;;;-142.57;92.91;115900.28;6258546;22;20014;-80
2023/07/05 01:20:01;;;;;;;14.63;7.20;;;;;;;-142.57;92.08;115900.28;6252396;22;20038;-85
2023/07/05 01:23:04;;;;;;;16.55;8.23;;;;;;;-142.57;92.58;115900.28;6191805;22;20036;-83
2023/07/05 01:25:48;;;;;;;14.73;7.68;;;;;;;-142.57;93.52;115900.28;6251593;23;20032;-86
2023/07/05 01:28:32;;;;;;;19.63;7.85;;;;;;;-142.57;93.98;115900.28;6250076;23;20012;-84
2023/07/05 01:31:14;;;;;;;19.90;7.80;;;;;;;-142.57;93.77;115900.28;6251734;23;20024;-82
2023/07/05 01:34:03;;;;;;;18.88;7.90;;;;;;;-142.57;93.31;115900.28;6249552;23;20023;-85
2023/07/05 01:36:33;;;;;;;17.92;7.43;;;;;;;-142.57;93.05;115900.28;6249705;23;20052;-86
2023/07/05 01:38:58;;;;;;;17.60;7.50;;;;;;;-142.57;92.10;115900.28;6249759;23;20016;-85
2023/07/05 01:41:24;;;;;;;12.93;6.95;;;;;;;-142.57;92.01;115900.28;6249275;22;20035;-82
2023/07/05 01:43:51;;;;;;;15.98;6.57;;;;;;;-142.57;91.67;115900.28;6249212;22;20036;-84
2023/07/05 01:46:27;;;;;;;15.13;7.32;;;;;;;-142.57;91.61;115900.28;6250060;23;20020;-85
2023/07/05 01:49:16;;;;;;;23.38;6.97;;;;;;;-142.57;90.93;115900.28;6250204;22;20019;-88
2023/07/05 01:51:46;;;;;;;13.82;6.28;;;;;;;-142.57;88.94;115900.28;6250174;22;20085;-83
2023/07/05 01:54:39;;;;;;;15.32;6.97;;;;;;;-142.57;87.15;115900.28;6249562;23;20435;-84
2023/07/05 01:57:08;;;;;;;;;;;;;;;-142.57;86.71;115900.28;6256074;22;20015;-79
2023/07/05 02:00:00;;;;;;;16.38;6.25;;;;;;;-142.57;86.53;115900.28;6241062;23;19963;-80
2023/07/05 02:02:32;;;;;;;13.52;6.15;;;;;;;-142.57;86.86;115900.28;6247254;23;20083;-84
2023/07/05 02:04:59;;;;;;;;;;;;;;;-142.57;88.03;115900.28;6245813;23;20011;-80
2023/07/05 02:07:27;;;;;;;13.85;5.88;;;;;;;-142.57;88.53;115900.28;6247673;22;19915;-81
2023/07/05 02:09:54;;;;;;;15.57;6.30;;;;;;;-142.57;89.26;115900.28;6249255;22;20095;-82
2023/07/05 02:12:19;;;;;;;16.38;6.45;;;;;;;-142.57;90.50;115900.28;6246940;23;20019;-83
2023/07/05 02:14:45;;;;;;;21.10;6.97;;;;;;;-142.57;91.65;115900.28;6249077;22;20004;-81
2023/07/05 02:17:10;;;;;;;17.30;7.38;;;;;;;-142.57;92.62;115900.28;6248676;22;20023;-83
2023/07/05 02:19:37;;;;;;;16.65;6.28;;;;;;;-142.57;93.67;115900.28;6250589;23;20020;-84
2023/07/05 02:22:03;;;;;;;12.40;6.32;;;;;;;-142.57;93.81;115900.28;6248746;23;20069;-86
2023/07/05 02:24:28;;;;;;;16.98;6.88;;;;;;;-142.57;93.74;115900.28;6247274;23;20094;-82
2023/07/05 02:26:57;;;;;;;16.83;7.28;;;;;;;-142.57;95.00;115900.28;6249639;22;20008;-83
2023/07/05 02:29:22;;;;;;;16.98;6.70;;;;;;;-142.57;96.62;115900.28;6247891;22;20007;-84
2023/07/05 02:31:51;;;;;;;17.40;7.75;;;;;;;-142.57;99.84;115900.28;6248082;22;20008;-89
2023/07/05 02:34:18;;;;;;;17.80;8.45;;;;;;;-142.57;100.00;115900.28;6246800;23;20004;-82
2023/07/05 02:36:43;;;;;;;17.98;8.57;;;;;;;-142.57;100.00;115900.28;6248851;23;20015;-82
2023/07/05 02:39:09;;;;;;;19.77;8.77;;;;;;;-142.57;100.00;115900.28;6246263;23;20008;-86
2023/07/05 02:41:34;;;;;;;15.18;8.73;;;;;;;-142.57;100.00;115900.28;6247396;23;20004;-89
2023/07/05 02:44:00;;;;;;;21.42;9.40;;;;;;;-142.57;100.00;115900.28;6249459;22;20016;-84
2023/07/05 02:46:26;;;;;;;22.60;10.18;;;;;;;-142.57;100.00;115900.28;6249767;22;20381;-83
2023/07/05 02:48:56;;;;;;;19.20;9.13;;;;;;;-142.57;100.00;115900.28;6249806;22;20439;-81
2023/07/05 02:51:23;;;;;;;14.20;8.75;;;;;;;-142.57;100.00;115900.28;6247449;23;20082;-84
2023/07/05 02:53:49;;;;;;;13.82;9.25;;;;;;;-142.57;100.00;115900.28;6246860;23;20055;-82
2023/07/05 02:56:15;;;;;;;34.97;9.07;;;;;;;-142.57;100.00;115900.28;6247869;23;20012;-80
2023/07/05 02:58:41;;;;;;;14.82;8.95;;;;;;;-142.57;100.00;115900.28;6248718;22;20016;-82
2023/07/05 03:01:10;;;;;;;13.35;7.57;;;;;;;-142.57;100.00;115900.28;6249110;22;20020;-84
2023/07/05 03:03:36;;;;;;;16.67;7.32;;;;;;;-142.57;100.00;115900.28;6250552;22;20454;-79
2023/07/05 03:06:02;;;;;;;17.33;7.53;;;;;;;-142.57;100.00;115900.28;6256285;23;20000;-86
2023/07/05 03:08:30;;;;;;;12.10;6.95;;;;;;;-142.57;100.00;115900.28;6259114;23;20022;-81
2023/07/05 03:11:00;;;;;;;11.95;6.70;;;;;;;-142.57;100.00;115900.28;6253625;23;20040;-81
2023/07/05 03:13:32;;;;;;;16.63;7.20;;;;;;;-142.57;100.00;115900.28;6225402;23;20058;-85
2023/07/05 03:15:58;;;;;;;15.55;6.80;;;;;;;-142.57;100.00;115900.28;6259462;22;20015;-80
2023/07/05 03:18:25;;;;;;;18.23;6.20;;;;;;;-142.57;100.00;115900.28;6234566;23;20031;-76
2023/07/05 03:20:51;;;;;;;9.57;5.35;;;;;;;-142.57;100.00;115900.28;6265757;23;20091;-77
2023/07/05 03:23:18;;;;;;;8.93;5.40;;;;;;;-142.57;100.00;115900.28;6253408;23;20027;-77
2023/07/05 03:26:09;;;;;;;10.00;5.32;;;;;;;-142.57;100.00;115900.28;6255373;23;20018;-78
2023/07/05 03:28:40;;;;;;;8.93;5.00;;;;;;;-142.57;100.00;115900.28;6255852;23;20012;-77
2023/07/05 03:31:11;;;;;;;8.68;5.25;;;;;;;-142.57;100.00;115900.28;6250056;23;20008;-81
2023/07/05 03:33:39;;;;;;;11.73;5.95;;;;;;;-142.57;100.00;115900.28;6247700;23;20023;-86
2023/07/05 03:36:09;;;;;;;11.00;5.30;;;;;;;-142.57;100.00;115900.28;6249448;23;20379;-83
2023/07/05 03:38:34;;;;;;;9.63;5.18;;;;;;;-142.57;100.00;115900.28;6248723;23;20054;-87
2023/07/05 03:41:05;;;;;;;11.43;5.00;;;;;;;-142.57;100.00;115900.28;6250190;23;20079;-84
2023/07/05 03:43:35;;;;;;;10.85;5.18;;;;;;;-142.57;100.00;115900.28;6249910;22;20008;-81
2023/07/05 03:46:03;;;;;;;8.90;5.60;;;;;;;-142.57;100.00;115900.28;6250406;22;20015;-85
2023/07/05 03:48:31;;;;;;;9.65;5.75;;;;;;;-142.57;100.00;115900.28;6252419;22;20012;-82
2023/07/05 03:50:58;;;;;;;11.30;5.30;;;;;;;-142.57;100.00;115900.28;6252213;22;20428;-85
2023/07/05 03:53:24;;;;;;;10.32;5.28;;;;;;;-142.57;100.00;115900.28;6251715;22;20008;-84
2023/07/05 03:55:49;;;;;;;12.88;5.78;;;;;;;-142.57;100.00;115900.28;6252691;22;20008;-88
2023/07/05 03:58:15;;;;;;;10.10;5.47;;;;;;;-142.57;100.00;115900.28;6252092;22;20084;-84
2023/07/05 04:00:41;;;;;;;10.48;4.95;;;;;;;-142.57;100.00;115900.28;6249766;22;20005;-82
2023/07/05 04:03:09;;;;;;;10.13;5.55;;;;;;;-142.57;100.00;115900.28;6248471;23;20074;-81
2023/07/05 04:05:35;;;;;;;13.35;6.22;;;;;;;-142.57;100.00;115900.28;6249159;22;20343;-79
2023/07/05 04:08:00;;;;;;;15.57;6.07;;;;;;;-142.57;100.00;115900.28;6248075;23;20015;-84
2023/07/05 04:10:26;;;;;;;9.88;5.65;;;;;;;-142.57;100.00;115900.28;6250046;23;20008;-85
2023/07/05 04:12:52;;;;;;;9.60;5.65;;;;;;;-142.57;100.00;115900.28;6249885;22;20384;-85
2023/07/05 04:15:18;;;;;;;10.25;6.28;;;;;;;-142.57;100.00;115900.28;6250437;22;20016;-86
2023/07/05 04:17:44;;;;;;;15.25;7.32;;;;;;;-142.57;100.00;115900.28;6251722;22;20008;-79
2023/07/05 04:20:10;;;;;;;19.63;7.45;;;;;;;-142.57;100.00;115900.28;6253859;23;20015;-81
2023/07/05 04:22:38;;;;;;;18.65;8.38;;;;;;;-142.57;100.00;115900.28;6257003;22;20076;-83
2023/07/05 04:25:04;;;;;;;19.88;9.13;;;;;;;-142.57;100.00;115900.28;6259585;22;20054;-79
2023/07/05 04:27:29;;;;;;;21.27;8.70;;;;;;;-142.57;100.00;115900.28;6230097;23;20020;-77
2023/07/05 04:29:55;;;;;;;15.50;8.25;;;;;;;-142.57;100.00;115900.28;6256063;23;20402;-82
2023/07/05 04:32:23;;;;;;;18.67;8.13;;;;;;;-142.57;100.00;115900.28;6251862;22;20394;-87
2023/07/05 04:34:49;;;;;;;14.90;8.85;;;;;;;-142.57;100.00;115900.28;6255586;22;20012;-84
2023/07/05 04:37:15;;;;;;;14.57;8.38;;;;;;;-142.57;100.00;115900.28;6255047;22;20014;-79
2023/07/05 04:39:40;;;;;;;16.52;7.85;;;;;;;-142.57;100.00;115900.28;6265042;22;20016;-77
2023/07/05 04:42:06;;;;;;;14.35;8.23;;;;;;;-142.57;100.00;115900.28;6261006;22;20012;-79
2023/07/05 04:44:31;;;;;;;13.35;8.18;;;;;;;-142.57;100.00;115900.28;6253002;23;20327;-88
2023/07/05 04:46:57;;;;;;;11.95;7.35;;;;;;;-142.57;100.00;115900.28;6252910;22;20023;-85
2023/07/05 04:49:23;;;;;;;14.20;8.13;;;;;;;-142.57;100.00;115900.28;6252501;22;20091;-85
2023/07/05 04:51:57;;;;;;;14.45;7.38;;;;;;;-142.57;100.00;115900.28;6257156;23;20039;-77
2023/07/05 04:54:33;;;;;;;15.52;8.15;;;;;;;-142.57;100.00;115900.28;6262742;22;20023;-75
2023/07/05 04:57:00;;;;;;;14.85;7.57;;;;;;;-142.57;100.00;115900.28;6260522;22;20450;-78
2023/07/05 04:59:28;;;;;;;16.73;8.13;;;;;;;-142.57;100.00;115900.28;6234737;23;20016;-86
2023/07/05 05:01:56;;;;;;;17.02;7.80;;;;;;;-142.57;100.00;115900.28;6259787;22;20060;-82
2023/07/05 05:04:22;;;;;;;13.38;7.35;;;;;;;-142.57;100.00;115900.28;6254224;23;20013;-87
2023/07/05 05:06:48;;;;;;;14.23;7.80;;;;;;;-142.57;100.00;115900.28;6252306;22;20023;-78
2023/07/05 05:09:13;;;;;;;11.75;7.75;;;;;;;-142.57;100.00;115900.28;6252996;23;20015;-80
2023/07/05 05:11:42;;;;;;;12.35;7.57;;;;;;;-142.57;100.00;115900.28;6250447;22;20012;-82
2023/07/05 05:14:07;;;;;;;19.73;7.82;;;;;;;-142.57;100.00;115900.28;6252474;23;20013;-83
2023/07/05 05:16:33;;;;;;;12.70;7.40;;;;;;;-142.57;100.00;115900.28;6250969;23;20019;-83
2023/07/05 05:18:58;;;;;;;17.40;7.72;;;;;;;-142.57;100.00;115900.28;6251933;23;20015;-77
2023/07/05 05:21:24;;;;;;;15.45;7.45;;;;;;;-142.57;100.00;115900.28;6251088;22;20339;-84
2023/07/05 05:23:49;;;;;;;14.77;7.32;;;;;;;-142.57;100.00;115900.28;6252865;23;20012;-89
2023/07/05 05:26:15;;;;;;;16.67;6.93;;;;;;;-142.57;100.00;115900.28;6253585;22;20039;-85
2023/07/05 05:28:43;;;;;;;15.70;7.15;;;;;;;-142.57;100.00;115900.28;6253783;22;20012;-84
2023/07/05 05:31:10;;;;;;;20.48;7.97;;;;;;;-142.57;100.00;115900.28;6252582;22;20018;-86
2023/07/05 05:33:36;;;;;;;11.27;5.97;;;;;;;-142.57;100.00;115900.28;6253133;22;20076;-85
2023/07/05 05:36:02;;;;;;;11.90;7.43;;;;;;;-142.57;100.00;115900.28;6252423;22;20008;-89
2023/07/05 05:38:29;;;;;;;16.33;7.57;;;;;;;-142.57;100.00;115900.28;6253032;22;20019;-85
2023/07/05 05:41:01;;;;;;;21.42;8.07;;;;;;;-142.57;100.00;115900.28;6253978;22;20070;-88
2023/07/05 05:43:27;;;;;;;19.83;7.68;;;;;;;-142.57;100.00;115900.28;6251801;23;20024;-90
2023/07/05 05:45:56;;;;;;;14.25;8.38;;;;;;;-142.57;100.00;115900.28;6250558;23;20004;-87
2023/07/05 05:48:21;;;;;;;18.45;8.00;;;;;;;-142.57;100.00;115900.28;6252714;22;20012;-84
2023/07/05 05:50:49;;;;;;;19.85;7.93;;;;;;;-142.57;100.00;115900.28;6256005;22;20037;-85
2023/07/05 05:53:15;;;;;;;16.00;9.15;;;;;;;-142.57;100.00;115900.28;6255364;22;20135;-84
2023/07/05 05:55:41;;;;;;;18.85;9.85;;;;;;;-142.57;100.00;115900.28;6254752;23;20023;-84
2023/07/05 05:58:10;;;;;;;15.90;8.75;;;;;;;-142.57;100.00;115900.28;6259328;22;20004;-77
2023/07/05 06:00:38;;;;;;;16.85;8.68;;;;;;;-142.57;99.59;115900.28;6264639;22;20013;-82
2023/07/05 06:03:06;;;;;;;15.68;7.97;;;;;;;-142.57;98.33;115900.28;6254316;23;20016;-87
2023/07/05 06:05:41;;;;;;;17.52;7.10;;;;;;;-142.57;94.83;115900.28;6254292;22;20008;-81
2023/07/05 06:08:07;;;;;;;14.13;6.38;;;;;;;-142.57;91.01;115900.28;6257300;23;20047;-78
2023/07/05 06:10:40;;;;;;;14.73;6.82;;;;;;;-142.57;88.41;115900.28;6258731;23;20375;-78
2023/07/05 06:13:09;;;;;;;14.43;6.57;;;;;;;-142.57;83.98;115900.28;6258730;22;20004;-80
2023/07/05 06:15:35;;;;;;;13.55;5.85;;;;;;;-142.57;79.40;115900.28;6257800;22;20083;-79
2023/07/05 06:18:00;;;;;;;16.25;5.20;;;;;;;-142.57;77.64;115900.28;6257067;23;20027;-83
2023/07/05 06:20:28;;;;;;;8.48;5.00;;;;;;;-142.57;75.78;115900.28;6259951;23;20423;-84
2023/07/05 06:22:53;;;;;;;9.63;4.63;;;;;;;-142.57;75.13;115900.28;6248362;22;20012;-83
2023/07/05 06:25:19;;;;;;;10.77;4.97;;;;;;;-142.57;74.38;115900.28;6248815;22;20085;-83
2023/07/05 06:27:44;;;;;;;8.07;4.95;;;;;;;-142.57;74.83;115900.28;6248376;22;20450;-84
2023/07/05 06:30:11;;;;;;;11.90;5.30;;;;;;;-142.57;73.06;115900.28;6249228;22;20016;-79
2023/07/05 06:32:36;;;;;;;10.45;4.38;;;;;;;-142.57;71.08;115900.28;6251424;22;20015;-81
2023/07/05 06:35:08;;;;;;;11.07;4.00;;;;;;;-142.57;69.33;115900.28;6254845;22;20000;-80
2023/07/05 06:37:34;;;;;;;10.48;3.92;;;;;;;-142.57;68.68;115900.28;6252064;23;20065;-85
2023/07/05 06:39:59;;;;;;;6.93;3.85;;;;;;;-142.57;67.66;115900.28;6246806;22;20429;-83
2023/07/05 06:42:25;;;;;;;6.65;3.72;;;;;;;-142.57;63.73;115900.28;6249288;22;20012;-88
2023/07/05 06:44:57;;;;;;;6.53;3.03;;;;;;;-142.57;64.56;115900.28;6247700;23;20057;-87
2023/07/05 06:47:26;;;;;;;8.50;3.40;;;;;;;-142.57;66.28;115900.28;6254986;23;20012;-80
2023/07/05 06:49:57;;;;;;;6.90;3.38;;;;;;;-142.57;65.12;115900.28;6254268;23;20000;-82
2023/07/05 06:52:26;;;;;;;6.63;3.17;;;;;;;-142.57;63.03;115900.28;6253821;22;20015;-83
2023/07/05 06:54:51;;;;;;;7.40;2.70;;;;;;;-142.57;61.32;115900.28;6252056;23;20008;-83
2023/07/05 06:57:17;;;;;;;8.32;3.20;;;;;;;-142.57;61.63;115900.28;6253399;23;20064;-83
2023/07/05 06:59:44;;;;;;;6.75;2.58;;;;;;;-142.57;59.77;115900.28;6254392;23;20019;-79
2023/07/05 07:02:13;;;;;;;8.70;3.30;;;;;;;-142.57;60.95;115900.28;6258746;23;20005;-79
2023/07/05 07:04:39;;;;;;;5.93;2.88;;;;;;;-142.57;61.24;115900.28;6256778;23;20019;-80
2023/07/05 07:07:05;;;;;;;5.90;2.67;;;;;;;-142.57;60.00;115900.28;6251186;23;20009;-84
2023/07/05 07:09:33;;;;;;;8.02;2.95;;;;;;;-142.57;61.82;115900.28;6260376;22;20012;-82
2023/07/05 07:11:59;;;;;;;11.35;3.15;;;;;;;-142.57;61.87;115900.28;6258473;23;20023;-86
2023/07/05 07:14:25;;;;;;;5.70;3.03;;;;;;;-142.57;59.80;115900.28;6252378;22;20000;-84
2023/07/05 07:16:51;;;;;;;6.07;2.58;;;;;;;-142.57;59.92;115900.28;6250506;22;20026;-84
2023/07/05 07:19:20;;;;;;;6.03;2.80;;;;;;;-142.57;57.27;115900.28;6256100;22;20012;-81
2023/07/05 07:21:45;;;;;;;6.90;3.28;;;;;;;-142.57;57.44;115900.28;6262395;23;20096;-85
2023/07/05 07:24:11;;;;;;;8.05;3.50;;;;;;;-142.57;57.19;115900.28;6252517;23;20012;-86
2023/07/05 07:26:37;;;;;;;14.40;3.50;;;;;;;-142.57;56.35;115900.28;6250444;22;20420;-85
2023/07/05 07:29:03;;;;;;;8.02;3.58;;;;;;;-142.57;55.96;115900.28;6250688;23;20046;-88
2023/07/05 07:31:31;;;;;;;7.85;3.30;;;;;;;-142.57;54.50;115900.28;6253511;22;20008;-88
2023/07/05 07:34:00;;;;;;;7.90;3.60;;;;;;;-142.57;53.58;115900.28;6256896;22;20012;-92
2023/07/05 07:36:28;;;;;;;6.22;4.00;;;;;;;-142.57;55.13;115900.28;6250721;22;20016;-86
2023/07/05 07:38:55;;;;;;;10.95;4.18;;;;;;;-142.57;55.26;115900.28;6250588;23;20008;-87
2023/07/05 07:41:23;;;;;;;12.63;3.88;;;;;;;-142.57;56.29;115900.28;6249810;22;20008;-85
2023/07/05 07:43:53;;;;;;;11.20;4.05;;;;;;;-142.57;54.48;115900.28;6248026;22;20370;-87
2023/07/05 07:46:24;;;;;;;7.22;3.92;;;;;;;-142.57;54.31;115900.28;6252184;22;20066;-87
2023/07/05 07:48:52;;;;;;;10.70;4.47;;;;;;;-142.57;52.41;115900.28;6247613;22;20008;-87
2023/07/05 07:51:23;;;;;;;9.73;4.07;;;;;;;-142.57;52.05;115900.28;6247542;22;20008;-86
2023/07/05 07:53:52;;;;;;;7.50;4.57;;;;;;;-142.57;49.55;115900.28;6249763;22;20093;-86
2023/07/05 07:56:19;;;;;;;11.77;4.80;;;;;;;-142.57;49.78;115900.28;6250590;22;20079;-87
2023/07/05 07:58:51;;;;;;;10.13;3.92;;;;;;;-142.57;51.28;115900.28;6248162;23;20016;-88
2023/07/05 08:01:26;;;;;;;7.70;4.45;;;;;;;-142.57;51.51;115900.28;6250239;22;20012;-86
2023/07/05 08:03:53;;;;;;;7.82;3.90;;;;;;;-142.57;49.53;115900.28;6250318;22;20032;-85
2023/07/05 08:06:19;;;;;;;6.38;3.75;;;;;;;-142.57;48.28;115900.28;6248738;23;20008;-87
2023/07/05 08:08:45;;;;;;;12.45;4.75;;;;;;;-142.57;50.20;115900.28;6250980;22;20008;-88
2023/07/05 08:11:11;;;;;;;8.23;4.70;;;;;;;-142.57;51.61;115900.28;6250641;22;20378;-87
2023/07/05 08:13:40;;;;;;;9.30;5.07;;;;;;;-142.57;51.08;115900.28;6250734;23;20376;-86
2023/07/05 08:16:06;;;;;;;10.55;4.18;;;;;;;-142.57;50.83;115900.28;6249856;23;20076;-89
2023/07/05 08:18:32;;;;;;;8.02;4.65;;;;;;;-142.57;49.92;115900.28;6251610;23;20008;-88
2023/07/05 08:20:57;;;;;;;14.95;5.57;;;;;;;-142.57;51.22;115900.28;6249790;22;20058;-86
2023/07/05 08:23:23;;;;;;;10.10;5.63;;;;;;;-142.57;48.22;115900.28;6249088;23;20012;-89
2023/07/05 08:25:54;;;;;;;10.70;4.95;;;;;;;-142.57;49.77;115900.28;6250712;23;20439;-87
2023/07/05 08:28:25;;;;;;;9.95;5.25;;;;;;;-142.57;47.94;115900.28;6249447;23;20015;-87
2023/07/05 08:31:02;;;;;;;10.30;4.93;;;;;;;-142.57;47.68;115900.28;6249700;23;20019;-87
2023/07/05 08:33:29;;;;;;;9.55;4.82;;;;;;;-142.57;46.97;115900.28;6251760;22;20020;-86
2023/07/05 08:36:04;;;;;;;10.57;4.85;;;;;;;-142.57;45.55;115900.28;6252297;23;20004;-88
2023/07/05 08:38:33;;;;;;;11.77;5.28;;;;;;;-142.57;47.83;115900.28;6256213;23;20004;-86
2023/07/05 08:41:30;;;;;;;13.68;5.57;;;;;;;-142.57;47.21;115900.28;6269288;22;20027;-85
2023/07/05 08:44:09;;;;;;;9.98;5.43;;;;;;;-142.57;47.54;115900.28;6226117;23;20024;-86
2023/07/05 08:46:37;;;;;;;9.23;5.05;;;;;;;-142.57;48.17;115900.28;6248371;22;20039;-84
2023/07/05 08:49:31;;;;;;;10.95;4.88;;;;;;;-142.57;46.25;115900.28;6248258;23;20427;-83
2023/07/05 08:51:57;;;;;;;10.13;4.95;;;;;;;-142.57;45.63;115900.28;6235314;23;20023;-85
2023/07/05 08:54:31;;;;;;;10.25;4.60;;;;;;;-142.57;44.63;115900.28;6248058;22;20394;-85
2023/07/05 08:57:04;;;;;;;8.60;4.80;;;;;;;-142.57;44.71;115900.28;6247708;22;20005;-85
2023/07/05 08:59:42;;;;;;;7.95;4.70;;;;;;;-142.57;44.58;115900.28;6246369;23;20331;-83
2023/07/05 09:02:09;;;;;;;8.93;4.75;;;;;;;-142.57;42.97;115900.28;6247262;23;20012;-91
2023/07/05 09:04:35;;;;;;;13.27;5.32;;;;;;;-142.57;44.30;115900.28;6247790;22;20004;-89
2023/07/05 09:07:18;;;;;;;7.95;5.18;;;;;;;-142.57;42.91;115900.28;6249842;23;20023;-83
2023/07/05 09:09:52;;;;;;;9.25;4.93;;;;;;;-142.57;43.76;115900.28;6248919;22;20316;-84
2023/07/05 09:12:42;;;;;;;7.78;4.80;;;;;;;-142.57;44.23;115900.28;6247112;23;20099;-85
2023/07/05 09:15:19;;;;;;;8.73;5.00;;;;;;;-142.57;42.89;115900.28;6247197;22;20012;-80
2023/07/05 09:17:56;;;;;;;10.15;4.88;;;;;;;-142.57;42.63;115900.28;6247699;22;20008;-87
2023/07/05 09:20:27;;;;;;;7.35;4.55;;;;;;;-142.57;41.39;115900.28;6247983;22;20039;-85
2023/07/05 09:22:54;;;;;;;12.55;4.07;;;;;;;-142.57;42.01;115900.28;6248277;23;20015;-86
2023/07/05 09:25:22;;;;;;;7.53;4.38;;;;;;;-142.57;40.60;115900.28;6248473;22;20019;-85
2023/07/05 09:27:55;;;;;;;9.73;4.50;;;;;;;-142.57;39.88;115900.28;6248768;22;20383;-88
2023/07/05 09:30:24;;;;;;;8.80;4.15;;;;;;;-142.57;39.88;115900.28;6249697;22;20078;-87
2023/07/05 09:33:05;;;;;;;6.63;4.15;;;;;;;-142.57;38.56;115900.28;6249664;22;20340;-85
2023/07/05 09:35:36;;;;;;;9.60;3.60;;;;;;;-142.57;37.34;115900.28;6249405;23;20011;-84
2023/07/05 09:38:12;;;;;;;11.53;3.50;;;;;;;-142.57;38.26;115900.28;6254864;22;20008;-88
2023/07/05 09:40:45;;;;;;;6.35;3.75;;;;;;;-142.57;39.54;115900.28;6259875;23;20011;-87
2023/07/05 09:43:35;;;;;;;8.48;3.88;;;;;;;-142.57;39.60;115900.28;6263214;23;20008;-88
2023/07/05 09:46:32;;;;;;;6.22;3.03;;;;;;;-142.57;39.20;115900.28;6262249;22;20062;-88
2023/07/05 09:48:59;;;;;;;4.55;3.10;;;;;;;-142.57;40.30;115900.28;6256114;22;20024;-86
2023/07/05 09:51:34;;;;;;;7.70;3.53;;;;;;;-142.57;39.53;115900.28;6266147;23;20022;-86
2023/07/05 09:54:07;;;;;;;7.88;3.67;;;;;;;-142.57;39.30;115900.28;6264794;22;20008;-83
2023/07/05 09:56:46;;;;;;;6.20;3.45;;;;;;;-142.57;40.49;115900.28;6261564;23;20024;-85
2023/07/05 09:59:20;;;;;;;11.77;3.85;;;;;;;-142.57;40.08;115900.28;6263556;22;20012;-80
2023/07/05 10:01:50;;;;;;;8.70;3.83;;;;;;;-142.57;40.58;115900.28;6261536;23;20062;-83
2023/07/05 10:04:16;;;;;;;8.32;4.00;;;;;;;-142.57;40.44;115900.28;6230206;23;20091;-84
2023/07/05 10:06:46;;;;;;;7.97;4.30;;;;;;;-142.57;41.67;115900.28;6255933;22;20015;-82
2023/07/05 10:09:34;;;;;;;8.57;4.05;;;;;;;-142.57;40.18;115900.28;6257270;22;20042;-81
2023/07/05 10:12:09;;;;;;;7.93;3.80;;;;;;;-142.57;38.92;115900.28;6255072;23;20076;-83
2023/07/05 10:14:35;;;;;;;8.07;3.85;;;;;;;-142.57;39.04;115900.28;6254822;22;20012;-82
2023/07/05 10:17:09;;;;;;;11.30;3.70;;;;;;;-142.57;38.54;115900.28;6255760;22;20028;-80
2023/07/05 10:19:41;;;;;;;7.55;3.38;;;;;;;-142.57;38.77;115900.28;6254591;23;20012;-80
2023/07/05 10:22:27;;;;;;;6.63;3.20;;;;;;;-142.57;39.90;115900.28;6258037;22;20032;-82
2023/07/05 10:24:57;;;;;;;11.32;3.70;;;;;;;-142.57;39.86;115900.28;6259983;23;20028;-83
2023/07/05 10:27:38;;;;;;;7.40;3.50;;;;;;;-142.57;39.91;115900.28;6256691;23;20004;-82
2023/07/05 10:30:29;;;;;;;7.28;3.25;;;;;;;-142.57;38.49;115900.28;6256624;23;20316;-81
2023/07/05 10:33:28;;;;;;;6.47;2.95;;;;;;;-142.57;38.44;115900.28;6258130;23;20008;-81
2023/07/05 10:36:05;;;;;;;6.35;3.15;;;;;;;-142.57;39.00;115900.28;6130593;23;20553;-83
2023/07/05 10:38:49;;;;;;;6.78;3.65;;;;;;;-142.57;39.62;115900.28;6108003;23;20377;-81
2023/07/05 10:41:37;;;;;;;7.43;3.47;;;;;;;-142.57;38.92;115900.28;6138204;23;20037;-80
2023/07/05 10:44:13;;;;;;;9.55;3.67;;;;;;;-142.57;38.34;115900.28;6137088;23;20018;-81
2023/07/05 10:46:39;;;;;;;5.65;3.50;;;;;;;-142.57;38.24;115900.28;6134791;23;20010;-79
2023/07/05 10:49:14;;;;;;;8.25;3.55;;;;;;;-142.57;36.61;115900.28;6087551;23;20041;-80
2023/07/05 10:52:03;;;;;;;5.90;3.40;;;;;;;-142.57;35.65;115900.28;6111541;23;20022;-81
2023/07/05 10:54:44;;;;;;;5.40;3.72;;;;;;;-142.57;35.92;115900.28;6134131;23;20073;-83
2023/07/05 10:57:47;;;;;;;7.60;3.70;;;;;;;-142.57;36.75;115900.28;6133498;23;20093;-84
2023/07/05 11:00:28;;;;;;;5.32;3.35;;;;;;;-142.57;36.98;115900.28;6127641;23;20024;-86
2023/07/05 11:03:09;;;;;;;8.50;3.75;;;;;;;-142.57;37.21;115900.28;6129960;23;20034;-82
2023/07/05 11:05:43;;;;;;;7.43;3.40;;;;;;;-142.57;38.21;115900.28;6080476;23;20022;-81
2023/07/05 11:08:25;;;;;;;6.03;3.70;;;;;;;-142.57;38.02;115900.28;6126410;23;20021;-86
2023/07/05 11:10:53;;;;;;;;;;;;;;;-142.57;37.67;115900.28;6159381;23;20016;-87
2023/07/05 11:13:18;;;;;;;8.98;3.90;;;;;;;-142.57;36.80;115900.28;6252646;22;19927;-87
2023/07/05 11:15:45;;;;;;;9.55;3.47;;;;;;;-142.57;37.06;115900.28;6252068;23;20012;-82
2023/07/05 11:18:20;;;;;;;9.05;3.30;;;;;;;-142.57;37.17;115900.28;6255895;23;20008;-81